sensor_id;sensor_type;location;lat;lon;timestamp;temperature;humidity
7564;DHT22;3823;53.586;10.040;2022-10-17T00:00:27;13.70;1.00
7564;DHT22;3823;53.586;10.040;2022-10-17T00:02:56;13.80;1.00
7564;DHT22;3823;53.586;10.040;2022-10-17T00:05:22;13.80;1.00
7564;DHT22;3823;53.586;10.040;2022-10-17T00:07:48;13.70;1.00
7564;DHT22;3823;53.586;10.040;2022-10-17T00:10:13;13.70;1.00
7564;DHT22;3823;53.586;10.040;2022-10-17T00:12:39;13.80;1.00
7564;DHT22;3823;53.586;10.040;2022-10-17T00:15:05;13.90;1.00
7564;DHT22;3823;53.586;10.040;2022-10-17T00:17:31;13.90;1.00
7564;DHT22;3823;53.586;10.040;2022-10-17T00:20:00;14.00;1.00
7564;DHT22;3823;53.586;10.040;2022-10-17T00:22:26;14.10;1.00
7564;DHT22;3823;53.586;10.040;2022-10-17T00:24:52;14.10;1.00
7564;DHT22;3823;53.586;10.040;2022-10-17T00:27:18;14.10;1.00
7564;DHT22;3823;53.586;10.040;2022-10-17T00:29:50;14.10;1.00
7564;DHT22;3823;53.586;10.040;2022-10-17T00:32:17;14.10;1.00
7564;DHT22;3823;53.586;10.040;2022-10-17T00:34:43;14.10;1.00
7564;DHT22;3823;53.586;10.040;2022-10-17T00:37:09;14.00;1.00
7564;DHT22;3823;53.586;10.040;2022-10-17T00:39:34;14.00;1.00
7564;DHT22;3823;53.586;10.040;2022-10-17T00:42:00;14.00;1.00
7564;DHT22;3823;53.586;10.040;2022-10-17T00:46:56;14.10;1.00
7564;DHT22;3823;53.586;10.040;2022-10-17T00:49:24;14.10;1.00
7564;DHT22;3823;53.586;10.040;2022-10-17T00:51:59;14.10;1.00
7564;DHT22;3823;53.586;10.040;2022-10-17T00:54:31;14.20;1.00
7564;DHT22;3823;53.586;10.040;2022-10-17T00:56:58;14.20;1.00
7564;DHT22;3823;53.586;10.040;2022-10-17T00:59:25;14.20;1.00
7564;DHT22;3823;53.586;10.040;2022-10-17T01:02:03;14.10;1.00
7564;DHT22;3823;53.586;10.040;2022-10-17T01:04:30;14.00;1.00
7564;DHT22;3823;53.586;10.040;2022-10-17T01:06:56;14.00;1.00
7564;DHT22;3823;53.586;10.040;2022-10-17T01:09:22;13.90;1.00
7564;DHT22;3823;53.586;10.040;2022-10-17T01:12:07;13.90;1.00
7564;DHT22;3823;53.586;10.040;2022-10-17T01:17:48;14.10;1.00
7564;DHT22;3823;53.586;10.040;2022-10-17T01:22:46;14.20;1.00
7564;DHT22;3823;53.586;10.040;2022-10-17T01:28:23;14.20;1.00
7564;DHT22;3823;53.586;10.040;2022-10-17T01:33:50;14.20;1.00
7564;DHT22;3823;53.586;10.040;2022-10-17T01:41:38;14.10;1.00
7564;DHT22;3823;53.586;10.040;2022-10-17T01:44:13;14.10;1.00
7564;DHT22;3823;53.586;10.040;2022-10-17T01:46:43;14.00;1.00
7564;DHT22;3823;53.586;10.040;2022-10-17T01:49:13;14.00;1.00
7564;DHT22;3823;53.586;10.040;2022-10-17T01:51:46;14.10;1.00
7564;DHT22;3823;53.586;10.040;2022-10-17T01:54:26;14.00;1.00
7564;DHT22;3823;53.586;10.040;2022-10-17T01:56:57;13.90;1.00
7564;DHT22;3823;53.586;10.040;2022-10-17T01:59:28;13.70;1.00
7564;DHT22;3823;53.586;10.040;2022-10-17T02:01:56;13.70;1.00
7564;DHT22;3823;53.586;10.040;2022-10-17T02:04:23;13.70;1.00
7564;DHT22;3823;53.586;10.040;2022-10-17T02:06:49;13.70;1.00
7564;DHT22;3823;53.586;10.040;2022-10-17T02:09:17;13.70;1.00
7564;DHT22;3823;53.586;10.040;2022-10-17T02:11:46;13.70;1.00
7564;DHT22;3823;53.586;10.040;2022-10-17T02:17:18;13.70;1.00
7564;DHT22;3823;53.586;10.040;2022-10-17T02:22:48;13.60;1.00
7564;DHT22;3823;53.586;10.040;2022-10-17T02:25:37;13.60;1.00
7564;DHT22;3823;53.586;10.040;2022-10-17T02:33:14;13.60;1.00
7564;DHT22;3823;53.586;10.040;2022-10-17T02:35:44;13.60;1.00
7564;DHT22;3823;53.586;10.040;2022-10-17T02:38:12;13.60;1.00
7564;DHT22;3823;53.586;10.040;2022-10-17T02:40:38;13.50;1.00
7564;DHT22;3823;53.586;10.040;2022-10-17T02:43:05;13.50;1.00
7564;DHT22;3823;53.586;10.040;2022-10-17T02:45:32;13.60;1.00
7564;DHT22;3823;53.586;10.040;2022-10-17T02:56:29;13.60;1.00
7564;DHT22;3823;53.586;10.040;2022-10-17T02:58:59;13.60;3.40
7564;DHT22;3823;53.586;10.040;2022-10-17T03:01:25;13.60;1.00
7564;DHT22;3823;53.586;10.040;2022-10-17T03:04:12;13.60;1.00
7564;DHT22;3823;53.586;10.040;2022-10-17T03:06:39;13.60;1.00
7564;DHT22;3823;53.586;10.040;2022-10-17T03:09:06;13.60;1.80
7564;DHT22;3823;53.586;10.040;2022-10-17T03:11:32;13.60;1.40
7564;DHT22;3823;53.586;10.040;2022-10-17T03:13:57;13.60;1.00
7564;DHT22;3823;53.586;10.040;2022-10-17T03:16:23;13.70;1.00
7564;DHT22;3823;53.586;10.040;2022-10-17T03:18:49;13.80;1.00
7564;DHT22;3823;53.586;10.040;2022-10-17T03:21:14;13.80;1.00
7564;DHT22;3823;53.586;10.040;2022-10-17T03:23:40;13.80;1.00
7564;DHT22;3823;53.586;10.040;2022-10-17T03:26:06;13.80;1.00
7564;DHT22;3823;53.586;10.040;2022-10-17T03:28:32;13.80;1.00
7564;DHT22;3823;53.586;10.040;2022-10-17T03:30:58;13.90;1.00
7564;DHT22;3823;53.586;10.040;2022-10-17T03:33:23;13.90;1.00
7564;DHT22;3823;53.586;10.040;2022-10-17T03:35:49;13.90;1.00
7564;DHT22;3823;53.586;10.040;2022-10-17T03:38:14;13.90;1.00
7564;DHT22;3823;53.586;10.040;2022-10-17T03:40:40;13.90;1.00
7564;DHT22;3823;53.586;10.040;2022-10-17T03:43:05;13.90;1.00
7564;DHT22;3823;53.586;10.040;2022-10-17T03:45:31;14.00;1.00
7564;DHT22;3823;53.586;10.040;2022-10-17T03:48:00;14.00;1.00
7564;DHT22;3823;53.586;10.040;2022-10-17T03:50:25;14.00;1.00
7564;DHT22;3823;53.586;10.040;2022-10-17T03:52:51;14.00;1.00
7564;DHT22;3823;53.586;10.040;2022-10-17T03:55:17;13.90;1.00
7564;DHT22;3823;53.586;10.040;2022-10-17T03:57:43;13.90;1.00
7564;DHT22;3823;53.586;10.040;2022-10-17T04:00:09;13.90;1.00
7564;DHT22;3823;53.586;10.040;2022-10-17T04:02:34;13.90;1.00
7564;DHT22;3823;53.586;10.040;2022-10-17T04:05:00;13.90;1.00
7564;DHT22;3823;53.586;10.040;2022-10-17T04:07:26;13.90;1.00
7564;DHT22;3823;53.586;10.040;2022-10-17T04:09:52;13.90;1.00
7564;DHT22;3823;53.586;10.040;2022-10-17T04:12:17;13.80;1.00
7564;DHT22;3823;53.586;10.040;2022-10-17T04:14:43;13.80;1.00
7564;DHT22;3823;53.586;10.040;2022-10-17T04:17:09;13.80;1.00
7564;DHT22;3823;53.586;10.040;2022-10-17T04:19:34;13.80;1.00
7564;DHT22;3823;53.586;10.040;2022-10-17T04:22:00;13.70;1.00
7564;DHT22;3823;53.586;10.040;2022-10-17T04:24:27;13.70;1.00
7564;DHT22;3823;53.586;10.040;2022-10-17T04:26:53;13.70;1.00
7564;DHT22;3823;53.586;10.040;2022-10-17T04:29:19;13.70;1.00
7564;DHT22;3823;53.586;10.040;2022-10-17T04:31:45;13.70;1.00
7564;DHT22;3823;53.586;10.040;2022-10-17T04:34:10;13.70;1.00
7564;DHT22;3823;53.586;10.040;2022-10-17T04:36:38;13.70;1.00
7564;DHT22;3823;53.586;10.040;2022-10-17T04:39:03;13.60;1.00
7564;DHT22;3823;53.586;10.040;2022-10-17T04:41:30;13.60;1.00
7564;DHT22;3823;53.586;10.040;2022-10-17T04:43:56;13.50;2.40
7564;DHT22;3823;53.586;10.040;2022-10-17T04:46:21;13.50;6.00
7564;DHT22;3823;53.586;10.040;2022-10-17T04:48:47;13.50;5.40
7564;DHT22;3823;53.586;10.040;2022-10-17T04:51:15;13.50;5.20
7564;DHT22;3823;53.586;10.040;2022-10-17T04:53:42;13.50;4.00
7564;DHT22;3823;53.586;10.040;2022-10-17T04:56:10;13.50;1.20
7564;DHT22;3823;53.586;10.040;2022-10-17T04:58:37;13.50;4.30
7564;DHT22;3823;53.586;10.040;2022-10-17T05:01:07;13.40;3.00
7564;DHT22;3823;53.586;10.040;2022-10-17T05:03:33;13.40;10.00
7564;DHT22;3823;53.586;10.040;2022-10-17T05:06:10;13.40;8.00
7564;DHT22;3823;53.586;10.040;2022-10-17T05:08:35;13.40;8.00
7564;DHT22;3823;53.586;10.040;2022-10-17T05:11:02;13.50;10.80
7564;DHT22;3823;53.586;10.040;2022-10-17T05:13:27;13.50;4.10
7564;DHT22;3823;53.586;10.040;2022-10-17T05:15:53;13.50;2.00
7564;DHT22;3823;53.586;10.040;2022-10-17T05:18:22;13.40;5.60
7564;DHT22;3823;53.586;10.040;2022-10-17T05:20:47;13.30;12.80
7564;DHT22;3823;53.586;10.040;2022-10-17T05:23:13;13.30;18.10
7564;DHT22;3823;53.586;10.040;2022-10-17T05:25:38;13.20;24.20
7564;DHT22;3823;53.586;10.040;2022-10-17T05:28:04;13.20;24.70
7564;DHT22;3823;53.586;10.040;2022-10-17T05:30:29;13.20;27.50
7564;DHT22;3823;53.586;10.040;2022-10-17T05:32:55;13.30;23.00
7564;DHT22;3823;53.586;10.040;2022-10-17T05:35:21;13.30;16.00
7564;DHT22;3823;53.586;10.040;2022-10-17T05:37:47;13.20;23.40
7564;DHT22;3823;53.586;10.040;2022-10-17T05:40:12;13.20;23.70
7564;DHT22;3823;53.586;10.040;2022-10-17T05:42:38;13.10;24.10
7564;DHT22;3823;53.586;10.040;2022-10-17T05:45:04;13.10;26.20
7564;DHT22;3823;53.586;10.040;2022-10-17T05:47:30;13.10;27.10
7564;DHT22;3823;53.586;10.040;2022-10-17T05:49:55;13.20;23.50
7564;DHT22;3823;53.586;10.040;2022-10-17T05:52:21;13.30;13.50
7564;DHT22;3823;53.586;10.040;2022-10-17T05:54:47;13.20;13.30
7564;DHT22;3823;53.586;10.040;2022-10-17T05:57:12;13.20;13.50
7564;DHT22;3823;53.586;10.040;2022-10-17T05:59:38;13.30;12.80
7564;DHT22;3823;53.586;10.040;2022-10-17T06:02:03;13.30;14.40
7564;DHT22;3823;53.586;10.040;2022-10-17T06:04:29;13.20;15.40
7564;DHT22;3823;53.586;10.040;2022-10-17T06:06:54;13.20;15.20
7564;DHT22;3823;53.586;10.040;2022-10-17T06:09:21;13.20;14.30
7564;DHT22;3823;53.586;10.040;2022-10-17T06:11:47;13.30;9.00
7564;DHT22;3823;53.586;10.040;2022-10-17T06:14:12;13.40;1.00
7564;DHT22;3823;53.586;10.040;2022-10-17T06:16:38;13.30;4.90
7564;DHT22;3823;53.586;10.040;2022-10-17T06:19:04;13.30;6.90
7564;DHT22;3823;53.586;10.040;2022-10-17T06:21:29;13.40;7.40
7564;DHT22;3823;53.586;10.040;2022-10-17T06:23:58;13.70;1.00
7564;DHT22;3823;53.586;10.040;2022-10-17T06:26:24;14.00;1.00
7564;DHT22;3823;53.586;10.040;2022-10-17T06:28:49;14.50;1.00
7564;DHT22;3823;53.586;10.040;2022-10-17T06:31:15;14.90;1.00
7564;DHT22;3823;53.586;10.040;2022-10-17T06:33:41;15.10;1.00
7564;DHT22;3823;53.586;10.040;2022-10-17T06:36:09;14.90;1.00
7564;DHT22;3823;53.586;10.040;2022-10-17T06:38:35;14.80;1.00
7564;DHT22;3823;53.586;10.040;2022-10-17T06:41:06;14.60;1.00
7564;DHT22;3823;53.586;10.040;2022-10-17T06:43:34;14.50;1.00
7564;DHT22;3823;53.586;10.040;2022-10-17T06:45:59;14.40;1.00
7564;DHT22;3823;53.586;10.040;2022-10-17T06:48:25;14.50;1.00
7564;DHT22;3823;53.586;10.040;2022-10-17T06:50:50;14.50;1.00
7564;DHT22;3823;53.586;10.040;2022-10-17T06:53:16;14.50;1.00
7564;DHT22;3823;53.586;10.040;2022-10-17T06:55:41;14.90;1.00
7564;DHT22;3823;53.586;10.040;2022-10-17T06:58:07;15.20;1.00
7564;DHT22;3823;53.586;10.040;2022-10-17T07:00:33;15.40;1.00
7564;DHT22;3823;53.586;10.040;2022-10-17T07:02:58;15.50;1.00
7564;DHT22;3823;53.586;10.040;2022-10-17T07:05:24;15.80;1.00
7564;DHT22;3823;53.586;10.040;2022-10-17T07:07:49;15.90;1.00
7564;DHT22;3823;53.586;10.040;2022-10-17T07:10:15;16.10;1.00
7564;DHT22;3823;53.586;10.040;2022-10-17T07:12:40;16.50;1.00
7564;DHT22;3823;53.586;10.040;2022-10-17T07:15:07;16.80;1.00
7564;DHT22;3823;53.586;10.040;2022-10-17T07:17:32;16.90;1.00
7564;DHT22;3823;53.586;10.040;2022-10-17T07:19:58;17.00;1.00
7564;DHT22;3823;53.586;10.040;2022-10-17T07:22:23;16.90;1.00
7564;DHT22;3823;53.586;10.040;2022-10-17T07:24:49;17.10;1.00
7564;DHT22;3823;53.586;10.040;2022-10-17T07:27:14;17.20;1.00
7564;DHT22;3823;53.586;10.040;2022-10-17T07:29:40;17.30;1.00
7564;DHT22;3823;53.586;10.040;2022-10-17T07:32:05;17.50;1.00
7564;DHT22;3823;53.586;10.040;2022-10-17T07:34:34;17.70;1.00
7564;DHT22;3823;53.586;10.040;2022-10-17T07:41:18;17.50;1.00
7564;DHT22;3823;53.586;10.040;2022-10-17T07:43:55;17.00;1.00
7564;DHT22;3823;53.586;10.040;2022-10-17T07:46:48;17.00;1.00
7564;DHT22;3823;53.586;10.040;2022-10-17T07:49:16;17.30;1.00
7564;DHT22;3823;53.586;10.040;2022-10-17T07:51:42;17.60;1.00
7564;DHT22;3823;53.586;10.040;2022-10-17T07:54:08;17.60;1.00
7564;DHT22;3823;53.586;10.040;2022-10-17T07:56:33;17.80;1.00
7564;DHT22;3823;53.586;10.040;2022-10-17T07:58:59;17.90;1.00
7564;DHT22;3823;53.586;10.040;2022-10-17T08:01:24;18.00;1.00
7564;DHT22;3823;53.586;10.040;2022-10-17T08:03:50;18.20;1.00
7564;DHT22;3823;53.586;10.040;2022-10-17T08:06:16;18.60;1.00
7564;DHT22;3823;53.586;10.040;2022-10-17T08:08:43;18.70;1.00
7564;DHT22;3823;53.586;10.040;2022-10-17T08:11:11;18.40;1.00
7564;DHT22;3823;53.586;10.040;2022-10-17T08:13:37;18.20;1.00
7564;DHT22;3823;53.586;10.040;2022-10-17T08:16:07;18.10;1.00
7564;DHT22;3823;53.586;10.040;2022-10-17T08:18:34;18.10;1.00
7564;DHT22;3823;53.586;10.040;2022-10-17T08:21:04;18.10;1.00
7564;DHT22;3823;53.586;10.040;2022-10-17T08:23:33;18.10;1.00
7564;DHT22;3823;53.586;10.040;2022-10-17T08:25:59;18.10;1.00
7564;DHT22;3823;53.586;10.040;2022-10-17T08:28:25;18.10;1.00
7564;DHT22;3823;53.586;10.040;2022-10-17T08:30:50;18.30;1.00
7564;DHT22;3823;53.586;10.040;2022-10-17T08:33:16;18.10;1.00
7564;DHT22;3823;53.586;10.040;2022-10-17T08:35:41;18.00;1.00
7564;DHT22;3823;53.586;10.040;2022-10-17T08:38:07;17.90;1.00
7564;DHT22;3823;53.586;10.040;2022-10-17T08:40:32;17.90;1.00
7564;DHT22;3823;53.586;10.040;2022-10-17T08:45:47;18.00;1.00
7564;DHT22;3823;53.586;10.040;2022-10-17T08:48:24;18.00;1.00
7564;DHT22;3823;53.586;10.040;2022-10-17T08:50:53;18.00;1.00
7564;DHT22;3823;53.586;10.040;2022-10-17T08:53:26;17.90;1.00
7564;DHT22;3823;53.586;10.040;2022-10-17T08:55:54;17.90;1.00
7564;DHT22;3823;53.586;10.040;2022-10-17T08:58:24;17.70;1.00
7564;DHT22;3823;53.586;10.040;2022-10-17T09:01:49;17.70;1.00
7564;DHT22;3823;53.586;10.040;2022-10-17T09:12:17;18.40;1.00
7564;DHT22;3823;53.586;10.040;2022-10-17T09:17:47;18.80;1.00
7564;DHT22;3823;53.586;10.040;2022-10-17T09:20:52;18.80;1.00
7564;DHT22;3823;53.586;10.040;2022-10-17T09:23:55;18.80;1.00
7564;DHT22;3823;53.586;10.040;2022-10-17T09:26:22;18.90;1.00
7564;DHT22;3823;53.586;10.040;2022-10-17T09:28:54;19.40;1.00
7564;DHT22;3823;53.586;10.040;2022-10-17T09:31:28;19.70;1.00
7564;DHT22;3823;53.586;10.040;2022-10-17T09:33:56;19.80;1.00
7564;DHT22;3823;53.586;10.040;2022-10-17T09:36:38;19.60;1.00
7564;DHT22;3823;53.586;10.040;2022-10-17T09:39:16;19.30;1.00
7564;DHT22;3823;53.586;10.040;2022-10-17T09:42:03;19.30;1.00
7564;DHT22;3823;53.586;10.040;2022-10-17T09:45:00;19.30;1.00
7564;DHT22;3823;53.586;10.040;2022-10-17T09:50:31;19.50;1.00
7564;DHT22;3823;53.586;10.040;2022-10-17T09:53:12;19.60;1.00
7564;DHT22;3823;53.586;10.040;2022-10-17T09:55:45;19.80;1.00
7564;DHT22;3823;53.586;10.040;2022-10-17T09:58:13;20.00;1.00
7564;DHT22;3823;53.586;10.040;2022-10-17T10:00:46;20.10;1.00
7564;DHT22;3823;53.586;10.040;2022-10-17T10:05:37;20.20;1.00
7564;DHT22;3823;53.586;10.040;2022-10-17T10:08:15;20.10;1.00
7564;DHT22;3823;53.586;10.040;2022-10-17T10:10:42;20.10;1.00
7564;DHT22;3823;53.586;10.040;2022-10-17T10:15:39;20.10;1.00
7564;DHT22;3823;53.586;10.040;2022-10-17T10:23:30;20.10;1.00
7564;DHT22;3823;53.586;10.040;2022-10-17T10:26:01;20.10;1.00
7564;DHT22;3823;53.586;10.040;2022-10-17T10:28:30;20.10;1.00
7564;DHT22;3823;53.586;10.040;2022-10-17T10:30:59;20.10;1.00
7564;DHT22;3823;53.586;10.040;2022-10-17T10:33:27;20.20;1.00
7564;DHT22;3823;53.586;10.040;2022-10-17T10:35:59;20.30;1.00
7564;DHT22;3823;53.586;10.040;2022-10-17T10:38:27;20.40;1.00
7564;DHT22;3823;53.586;10.040;2022-10-17T10:41:13;20.50;1.00
7564;DHT22;3823;53.586;10.040;2022-10-17T10:43:44;20.60;1.00
7564;DHT22;3823;53.586;10.040;2022-10-17T10:46:23;20.70;1.00
7564;DHT22;3823;53.586;10.040;2022-10-17T10:49:01;20.60;1.00
7564;DHT22;3823;53.586;10.040;2022-10-17T10:51:44;20.60;1.00
7564;DHT22;3823;53.586;10.040;2022-10-17T10:54:35;20.50;1.00
7564;DHT22;3823;53.586;10.040;2022-10-17T10:57:04;20.50;1.00
7564;DHT22;3823;53.586;10.040;2022-10-17T11:02:26;20.40;1.00
7564;DHT22;3823;53.586;10.040;2022-10-17T11:07:56;20.50;1.00
7564;DHT22;3823;53.586;10.040;2022-10-17T11:13:24;20.40;1.00
7564;DHT22;3823;53.586;10.040;2022-10-17T11:21:47;20.50;1.00
7564;DHT22;3823;53.586;10.040;2022-10-17T11:24:26;20.50;1.00
7564;DHT22;3823;53.586;10.040;2022-10-17T11:26:58;20.60;1.00
7564;DHT22;3823;53.586;10.040;2022-10-17T11:29:28;20.60;1.00
7564;DHT22;3823;53.586;10.040;2022-10-17T11:31:56;20.60;1.00
7564;DHT22;3823;53.586;10.040;2022-10-17T11:34:29;20.70;1.00
7564;DHT22;3823;53.586;10.040;2022-10-17T11:37:03;20.70;1.00
7564;DHT22;3823;53.586;10.040;2022-10-17T11:40:02;20.70;1.00
7564;DHT22;3823;53.586;10.040;2022-10-17T11:42:33;20.80;1.00
7564;DHT22;3823;53.586;10.040;2022-10-17T11:45:06;20.80;1.00
7564;DHT22;3823;53.586;10.040;2022-10-17T11:47:57;20.80;1.00
7564;DHT22;3823;53.586;10.040;2022-10-17T11:50:33;20.80;1.00
7564;DHT22;3823;53.586;10.040;2022-10-17T11:53:02;20.80;1.00
7564;DHT22;3823;53.586;10.040;2022-10-17T11:55:30;20.90;1.00
7564;DHT22;3823;53.586;10.040;2022-10-17T11:58:08;20.90;1.00
7564;DHT22;3823;53.586;10.040;2022-10-17T12:00:53;20.80;1.00
7564;DHT22;3823;53.586;10.040;2022-10-17T12:03:51;20.80;1.00
7564;DHT22;3823;53.586;10.040;2022-10-17T12:06:41;20.70;1.00
7564;DHT22;3823;53.586;10.040;2022-10-17T12:11:53;20.60;1.00
7564;DHT22;3823;53.586;10.040;2022-10-17T12:14:46;20.40;1.00
7564;DHT22;3823;53.586;10.040;2022-10-17T12:19:50;20.00;1.00
7564;DHT22;3823;53.586;10.040;2022-10-17T12:22:23;19.80;1.00
7564;DHT22;3823;53.586;10.040;2022-10-17T12:25:00;19.70;1.00
7564;DHT22;3823;53.586;10.040;2022-10-17T12:27:43;19.70;1.00
7564;DHT22;3823;53.586;10.040;2022-10-17T12:30:22;19.60;1.00
7564;DHT22;3823;53.586;10.040;2022-10-17T12:35:26;19.50;8.10
7564;DHT22;3823;53.586;10.040;2022-10-17T12:43:01;19.50;22.60
7564;DHT22;3823;53.586;10.040;2022-10-17T12:48:12;19.60;31.90
7564;DHT22;3823;53.586;10.040;2022-10-17T12:56:15;19.50;21.00
7564;DHT22;3823;53.586;10.040;2022-10-17T12:58:44;19.50;19.20
7564;DHT22;3823;53.586;10.040;2022-10-17T13:01:17;19.50;21.00
7564;DHT22;3823;53.586;10.040;2022-10-17T13:03:46;19.40;15.90
7564;DHT22;3823;53.586;10.040;2022-10-17T13:06:20;19.40;2.20
7564;DHT22;3823;53.586;10.040;2022-10-17T13:08:51;19.40;3.10
7564;DHT22;3823;53.586;10.040;2022-10-17T13:11:22;19.30;18.30
7564;DHT22;3823;53.586;10.040;2022-10-17T13:13:52;19.30;20.60
7564;DHT22;3823;53.586;10.040;2022-10-17T13:16:39;19.30;16.30
7564;DHT22;3823;53.586;10.040;2022-10-17T13:19:17;19.30;20.80
7564;DHT22;3823;53.586;10.040;2022-10-17T13:21:59;19.30;29.20
7564;DHT22;3823;53.586;10.040;2022-10-17T13:24:37;19.20;64.80
7564;DHT22;3823;53.586;10.040;2022-10-17T13:27:18;19.10;99.90
7564;DHT22;3823;53.586;10.040;2022-10-17T13:29:45;18.90;99.90
7564;DHT22;3823;53.586;10.040;2022-10-17T13:32:11;18.90;99.90
7564;DHT22;3823;53.586;10.040;2022-10-17T13:34:36;18.80;99.90
7564;DHT22;3823;53.586;10.040;2022-10-17T13:37:05;18.80;99.90
7564;DHT22;3823;53.586;10.040;2022-10-17T13:39:41;18.70;99.90
7564;DHT22;3823;53.586;10.040;2022-10-17T13:42:20;18.70;99.90
7564;DHT22;3823;53.586;10.040;2022-10-17T13:44:46;18.60;99.90
7564;DHT22;3823;53.586;10.040;2022-10-17T13:47:23;18.60;99.90
7564;DHT22;3823;53.586;10.040;2022-10-17T13:49:50;18.60;99.90
7564;DHT22;3823;53.586;10.040;2022-10-17T13:52:21;18.60;99.90
7564;DHT22;3823;53.586;10.040;2022-10-17T13:54:49;18.60;99.90
7564;DHT22;3823;53.586;10.040;2022-10-17T13:59:46;18.60;99.90
7564;DHT22;3823;53.586;10.040;2022-10-17T14:02:15;18.50;99.90
7564;DHT22;3823;53.586;10.040;2022-10-17T14:04:41;18.50;99.90
7564;DHT22;3823;53.586;10.040;2022-10-17T14:07:23;18.40;99.90
7564;DHT22;3823;53.586;10.040;2022-10-17T14:09:50;18.40;99.90
7564;DHT22;3823;53.586;10.040;2022-10-17T14:12:18;18.50;99.90
7564;DHT22;3823;53.586;10.040;2022-10-17T14:14:51;18.50;99.90
7564;DHT22;3823;53.586;10.040;2022-10-17T14:17:23;18.50;99.90
7564;DHT22;3823;53.586;10.040;2022-10-17T14:19:59;18.50;99.90
7564;DHT22;3823;53.586;10.040;2022-10-17T14:22:32;18.40;99.90
7564;DHT22;3823;53.586;10.040;2022-10-17T14:24:58;18.40;99.90
7564;DHT22;3823;53.586;10.040;2022-10-17T14:27:30;18.40;99.90
7564;DHT22;3823;53.586;10.040;2022-10-17T14:29:58;18.40;99.90
7564;DHT22;3823;53.586;10.040;2022-10-17T14:32:29;18.30;99.90
7564;DHT22;3823;53.586;10.040;2022-10-17T14:34:57;18.30;99.90
7564;DHT22;3823;53.586;10.040;2022-10-17T14:37:42;18.40;99.90
7564;DHT22;3823;53.586;10.040;2022-10-17T14:40:16;18.40;99.90
7564;DHT22;3823;53.586;10.040;2022-10-17T14:42:43;18.40;99.90
7564;DHT22;3823;53.586;10.040;2022-10-17T14:45:21;18.40;99.90
7564;DHT22;3823;53.586;10.040;2022-10-17T14:47:49;18.40;99.90
7564;DHT22;3823;53.586;10.040;2022-10-17T14:50:25;18.50;99.90
7564;DHT22;3823;53.586;10.040;2022-10-17T14:53:02;18.50;99.90
7564;DHT22;3823;53.586;10.040;2022-10-17T14:55:30;18.40;99.90
7564;DHT22;3823;53.586;10.040;2022-10-17T14:57:56;18.40;99.90
7564;DHT22;3823;53.586;10.040;2022-10-17T15:00:22;18.40;99.90
7564;DHT22;3823;53.586;10.040;2022-10-17T15:02:49;18.40;99.90
7564;DHT22;3823;53.586;10.040;2022-10-17T15:05:15;18.40;99.90
7564;DHT22;3823;53.586;10.040;2022-10-17T15:07:42;18.40;99.90
7564;DHT22;3823;53.586;10.040;2022-10-17T15:10:28;18.40;99.90
7564;DHT22;3823;53.586;10.040;2022-10-17T15:12:54;18.40;99.90
7564;DHT22;3823;53.586;10.040;2022-10-17T15:15:20;18.40;99.90
7564;DHT22;3823;53.586;10.040;2022-10-17T15:17:45;18.40;99.90
7564;DHT22;3823;53.586;10.040;2022-10-17T15:20:13;18.30;99.90
7564;DHT22;3823;53.586;10.040;2022-10-17T15:22:40;18.30;99.90
7564;DHT22;3823;53.586;10.040;2022-10-17T15:25:06;18.30;99.90
7564;DHT22;3823;53.586;10.040;2022-10-17T15:27:31;18.30;99.90
7564;DHT22;3823;53.586;10.040;2022-10-17T15:29:57;18.30;99.90
7564;DHT22;3823;53.586;10.040;2022-10-17T15:32:23;18.30;99.90
7564;DHT22;3823;53.586;10.040;2022-10-17T15:34:48;18.40;99.90
7564;DHT22;3823;53.586;10.040;2022-10-17T15:37:17;18.40;99.90
7564;DHT22;3823;53.586;10.040;2022-10-17T15:39:47;18.40;99.90
7564;DHT22;3823;53.586;10.040;2022-10-17T15:42:17;18.30;99.90
7564;DHT22;3823;53.586;10.040;2022-10-17T15:44:43;18.30;99.90
7564;DHT22;3823;53.586;10.040;2022-10-17T15:47:21;18.20;99.90
7564;DHT22;3823;53.586;10.040;2022-10-17T15:49:46;18.20;99.90
7564;DHT22;3823;53.586;10.040;2022-10-17T15:52:12;18.20;99.90
7564;DHT22;3823;53.586;10.040;2022-10-17T15:54:37;18.20;99.90
7564;DHT22;3823;53.586;10.040;2022-10-17T15:57:03;18.20;99.90
7564;DHT22;3823;53.586;10.040;2022-10-17T15:59:32;18.20;99.90
7564;DHT22;3823;53.586;10.040;2022-10-17T16:01:58;18.20;99.90
7564;DHT22;3823;53.586;10.040;2022-10-17T16:04:24;18.20;99.90
7564;DHT22;3823;53.586;10.040;2022-10-17T16:06:51;18.10;99.90
7564;DHT22;3823;53.586;10.040;2022-10-17T16:09:17;18.10;99.90
7564;DHT22;3823;53.586;10.040;2022-10-17T16:11:43;18.10;99.90
7564;DHT22;3823;53.586;10.040;2022-10-17T16:14:12;18.10;99.90
7564;DHT22;3823;53.586;10.040;2022-10-17T16:16:38;18.10;99.90
7564;DHT22;3823;53.586;10.040;2022-10-17T16:19:04;18.10;99.90
7564;DHT22;3823;53.586;10.040;2022-10-17T16:21:32;18.00;99.90
7564;DHT22;3823;53.586;10.040;2022-10-17T16:23:59;18.00;99.90
7564;DHT22;3823;53.586;10.040;2022-10-17T16:26:26;18.00;99.90
7564;DHT22;3823;53.586;10.040;2022-10-17T16:28:52;18.00;99.90
7564;DHT22;3823;53.586;10.040;2022-10-17T16:31:27;18.00;99.90
7564;DHT22;3823;53.586;10.040;2022-10-17T16:33:55;18.00;99.90
7564;DHT22;3823;53.586;10.040;2022-10-17T16:36:21;18.00;99.90
7564;DHT22;3823;53.586;10.040;2022-10-17T16:38:47;18.00;99.90
7564;DHT22;3823;53.586;10.040;2022-10-17T16:41:32;18.00;99.90
7564;DHT22;3823;53.586;10.040;2022-10-17T16:44:00;17.90;99.90
7564;DHT22;3823;53.586;10.040;2022-10-17T16:46:27;18.00;99.90
7564;DHT22;3823;53.586;10.040;2022-10-17T16:48:53;18.00;99.90
7564;DHT22;3823;53.586;10.040;2022-10-17T16:51:19;17.90;99.90
7564;DHT22;3823;53.586;10.040;2022-10-17T16:53:47;17.90;99.90
7564;DHT22;3823;53.586;10.040;2022-10-17T16:56:16;17.90;99.90
7564;DHT22;3823;53.586;10.040;2022-10-17T16:58:43;18.00;99.90
7564;DHT22;3823;53.586;10.040;2022-10-17T17:01:13;17.90;99.90
7564;DHT22;3823;53.586;10.040;2022-10-17T17:03:41;17.90;99.90
7564;DHT22;3823;53.586;10.040;2022-10-17T17:06:11;17.90;99.90
7564;DHT22;3823;53.586;10.040;2022-10-17T17:08:36;17.90;99.90
7564;DHT22;3823;53.586;10.040;2022-10-17T17:11:05;17.90;99.90
7564;DHT22;3823;53.586;10.040;2022-10-17T17:13:31;17.90;99.90
7564;DHT22;3823;53.586;10.040;2022-10-17T17:16:12;17.90;99.90
7564;DHT22;3823;53.586;10.040;2022-10-17T17:18:38;17.90;99.90
7564;DHT22;3823;53.586;10.040;2022-10-17T17:21:06;17.90;99.90
7564;DHT22;3823;53.586;10.040;2022-10-17T17:23:34;17.80;99.90
7564;DHT22;3823;53.586;10.040;2022-10-17T17:26:02;17.80;99.90
7564;DHT22;3823;53.586;10.040;2022-10-17T17:28:29;17.80;99.90
7564;DHT22;3823;53.586;10.040;2022-10-17T17:30:55;17.80;99.90
7564;DHT22;3823;53.586;10.040;2022-10-17T17:33:22;17.80;99.90
7564;DHT22;3823;53.586;10.040;2022-10-17T17:35:56;17.80;99.90
7564;DHT22;3823;53.586;10.040;2022-10-17T17:38:23;17.90;99.90
7564;DHT22;3823;53.586;10.040;2022-10-17T17:40:49;17.80;99.90
7564;DHT22;3823;53.586;10.040;2022-10-17T17:43:15;17.80;99.90
7564;DHT22;3823;53.586;10.040;2022-10-17T17:45:40;17.80;99.90
7564;DHT22;3823;53.586;10.040;2022-10-17T17:48:06;17.80;99.90
7564;DHT22;3823;53.586;10.040;2022-10-17T17:50:34;17.80;99.90
7564;DHT22;3823;53.586;10.040;2022-10-17T17:53:00;17.80;99.90
7564;DHT22;3823;53.586;10.040;2022-10-17T17:55:26;17.80;99.90
7564;DHT22;3823;53.586;10.040;2022-10-17T17:57:51;17.80;99.90